| time (UTC) | temp C | wind direction | speed KPH | gust KPH | rain 1hr cm | rain 24hr cm | rain mn cm | humidity % | barometer mb |
| 20260507141602 | 13 | 136 | 1.6 | 4.8 | 0.00 | 0.00 | 0.00 | 90 | 1016.4 |
| 20260507140042 | 13 | 114 | 1.6 | 6.4 | 0.00 | 0.00 | 0.00 | 92 | 1016.3 |
| 20260507134542 | 12 | 0 | 0.0 | 6.4 | 0.00 | 0.00 | 0.00 | 93 | 1016.2 |
| 20260507133038 | 11 | 0 | 0.0 | 0.0 | 0.00 | 0.00 | 0.00 | 93 | 1016.1 |
| 20260507131541 | 11 | 0 | 0.0 | 0.0 | 0.00 | 0.00 | 0.00 | 93 | 1016.0 |
| 20260507130035 | 11 | 0 | 0.0 | 0.0 | 0.00 | 0.00 | 0.00 | 93 | 1016.0 |
| 20260507124540 | 11 | 0 | 0.0 | 0.0 | 0.00 | 0.00 | 0.00 | 92 | 1015.7 |
| 20260507123040 | 11 | 0 | 0.0 | 0.0 | 0.00 | 0.00 | 0.00 | 93 | 1015.8 |
| 20260507121539 | 11 | 0 | 0.0 | 0.0 | 0.00 | 0.00 | 0.00 | 92 | 1015.7 |
| 20260507120035 | 11 | 0 | 0.0 | 0.0 | 0.00 | 0.00 | 0.00 | 92 | 1015.8 |
| 20260507114543 | 11 | 0 | 0.0 | 0.0 | 0.00 | 0.00 | 0.00 | 91 | 1015.7 |
| 20260507113038 | 11 | 0 | 0.0 | 0.0 | 0.00 | 0.00 | 0.00 | 91 | 1015.7 |
| 20260507111543 | 12 | 0 | 0.0 | 0.0 | 0.00 | 0.00 | 0.00 | 91 | 1015.7 |
| 20260507110036 | 12 | 0 | 0.0 | 0.0 | 0.00 | 0.00 | 0.00 | 91 | 1015.7 |
| 20260507104537 | 12 | 0 | 0.0 | 0.0 | 0.00 | 0.00 | 0.00 | 91 | 1015.8 |
| 20260507103040 | 12 | 0 | 0.0 | 0.0 | 0.00 | 0.00 | 0.00 | 91 | 1016.0 |
| 20260507101547 | 12 | 0 | 0.0 | 0.0 | 0.00 | 0.00 | 0.00 | 91 | 1016.0 |
| 20260507100043 | 12 | 0 | 0.0 | 0.0 | 0.00 | 0.00 | 0.00 | 91 | 1015.9 |
| 20260507094544 | 12 | 0 | 0.0 | 0.0 | 0.00 | 0.00 | 0.00 | 90 | 1016.1 |
| 20260507093043 | 13 | 0 | 0.0 | 0.0 | 0.00 | 0.00 | 0.00 | 90 | 1016.2 |
| 20260507091544 | 13 | 0 | 0.0 | 0.0 | 0.00 | 0.00 | 0.00 | 90 | 1016.3 |
| 20260507090040 | 13 | 0 | 0.0 | 0.0 | 0.00 | 0.00 | 0.00 | 89 | 1016.4 |
| 20260507084544 | 13 | 0 | 0.0 | 0.0 | 0.00 | 0.00 | 0.00 | 89 | 1016.5 |
| 20260507083039 | 13 | 0 | 0.0 | 0.0 | 0.00 | 0.00 | 0.00 | 89 | 1016.7 |
| 20260507081536 | 14 | 0 | 0.0 | 0.0 | 0.00 | 0.00 | 0.00 | 89 | 1016.9 |
| 20260507080044 | 14 | 0 | 0.0 | 1.6 | 0.00 | 0.00 | 0.00 | 89 | 1017.1 |
| 20260507074541 | 14 | 0 | 0.0 | 0.0 | 0.00 | 0.00 | 0.00 | 90 | 1017.0 |
| 20260507073040 | 14 | 0 | 0.0 | 0.0 | 0.00 | 0.00 | 0.00 | 89 | 1017.2 |
| 20260507071538 | 14 | 0 | 0.0 | 0.0 | 0.00 | 0.00 | 0.00 | 88 | 1017.0 |
| 20260507070039 | 14 | 0 | 0.0 | 0.0 | 0.00 | 0.00 | 0.00 | 87 | 1017.3 |
| 20260507064544 | 15 | 0 | 0.0 | 0.0 | 0.00 | 0.00 | 0.00 | 87 | 1017.3 |
| 20260507063045 | 15 | 0 | 0.0 | 0.0 | 0.00 | 0.00 | 0.00 | 87 | 1017.4 |
| 20260507061544 | 15 | 0 | 0.0 | 0.0 | 0.00 | 0.00 | 0.00 | 87 | 1017.3 |
| 20260507060050 | 15 | 0 | 0.0 | 0.0 | 0.00 | 0.00 | 0.00 | 87 | 1017.3 |
| 20260507054546 | 15 | 0 | 0.0 | 1.6 | 0.00 | 0.00 | 0.00 | 86 | 1017.3 |
| 20260507053052 | 16 | 0 | 0.0 | 1.6 | 0.00 | 0.00 | 0.00 | 85 | 1017.4 |
| 20260507051540 | 16 | 0 | 0.0 | 1.6 | 0.00 | 0.00 | 0.00 | 83 | 1017.4 |
| 20260507050039 | 16 | 0 | 0.0 | 3.2 | 0.00 | 0.00 | 0.00 | 84 | 1017.3 |
| 20260507044549 | 16 | 0 | 0.0 | 3.2 | 0.00 | 0.00 | 0.00 | 84 | 1017.3 |
| 20260507043036 | 16 | 307 | 0.0 | 6.4 | 0.00 | 0.00 | 0.00 | 84 | 1017.2 |
| 20260507041539 | 16 | 298 | 0.0 | 4.8 | 0.00 | 0.00 | 0.00 | 84 | 1017.2 |
| 20260507040042 | 16 | 291 | 0.0 | 4.8 | 0.00 | 0.00 | 0.00 | 84 | 1017.1 |
| 20260507034542 | 16 | 317 | 1.6 | 8.0 | 0.00 | 0.00 | 0.00 | 83 | 1016.8 |
| 20260507033039 | 16 | 0 | 1.6 | 6.4 | 0.00 | 0.00 | 0.00 | 83 | 1016.7 |
| 20260507031539 | 17 | 0 | 1.6 | 9.7 | 0.00 | 0.00 | 0.00 | 82 | 1016.6 |
| 20260507030040 | 17 | 268 | 1.6 | 12.9 | 0.00 | 0.00 | 0.00 | 81 | 1016.4 |
| 20260507024545 | 17 | 0 | 3.2 | 11.3 | 0.00 | 0.00 | 0.00 | 79 | 1016.4 |
| 20260507023040 | 17 | 318 | 3.2 | 12.9 | 0.00 | 0.00 | 0.00 | 76 | 1016.2 |
| 20260507021539 | 17 | 304 | 3.2 | 14.5 | 0.00 | 0.00 | 0.00 | 74 | 1016.0 |
| 20260507020045 | 18 | 315 | 4.8 | 14.5 | 0.00 | 0.00 | 0.00 | 71 | 1016.1 |
| 20260507014544 | 18 | 292 | 3.2 | 16.1 | 0.00 | 0.00 | 0.00 | 68 | 1015.9 |
| 20260507013049 | 19 | 298 | 0.0 | 12.9 | 0.00 | 0.00 | 0.00 | 69 | 1015.9 |
| 20260507011542 | 19 | 0 | 3.2 | 14.5 | 0.00 | 0.00 | 0.00 | 72 | 1016.0 |
| 20260507010042 | 19 | 0 | 3.2 | 16.1 | 0.00 | 0.00 | 0.00 | 69 | 1015.9 |
| 20260507004537 | 19 | 256 | 1.6 | 14.5 | 0.00 | 0.00 | 0.00 | 72 | 1015.9 |
| 20260507003038 | 19 | 328 | 3.2 | 16.1 | 0.00 | 0.00 | 0.00 | 72 | 1015.9 |
| 20260507001541 | 19 | 352 | 6.4 | 20.9 | 0.00 | 0.00 | 0.00 | 71 | 1015.8 |
| 20260507000040 | 19 | 311 | 4.8 | 20.9 | 0.00 | 0.00 | 0.00 | 70 | 1015.7 |
| 20260506234536 | 20 | 320 | 4.8 | 14.5 | 0.00 | 0.00 | 0.00 | 68 | 1015.7 |
| 20260506233037 | 20 | 14 | 3.2 | 22.5 | 0.00 | 0.00 | 0.00 | 69 | 1015.6 |
| 20260506231543 | 20 | 329 | 3.2 | 19.3 | 0.00 | 0.00 | 0.00 | 68 | 1015.7 |
| 20260506230039 | 19 | 312 | 6.4 | 19.3 | 0.00 | 0.00 | 0.00 | 69 | 1015.9 |
| 20260506224556 | 19 | 286 | 4.8 | 17.7 | 0.00 | 0.00 | 0.00 | 69 | 1015.9 |
| 20260506223035 | 19 | 325 | 6.4 | 17.7 | 0.00 | 0.00 | 0.00 | 69 | 1016.1 |
| 20260506221535 | 19 | 306 | 8.0 | 20.9 | 0.00 | 0.00 | 0.00 | 67 | 1016.2 |
| 20260506220041 | 20 | 165 | 3.2 | 16.1 | 0.00 | 0.00 | 0.00 | 67 | 1016.3 |
| 20260506214549 | 19 | 194 | 4.8 | 17.7 | 0.00 | 0.00 | 0.00 | 67 | 1016.5 |
| 20260506213039 | 20 | 176 | 8.0 | 22.5 | 0.00 | 0.00 | 0.00 | 67 | 1016.6 |
| 20260506211535 | 20 | 266 | 3.2 | 14.5 | 0.00 | 0.00 | 0.00 | 67 | 1016.6 |
| 20260506210043 | 20 | 260 | 4.8 | 17.7 | 0.00 | 0.00 | 0.00 | 65 | 1016.7 |
| 20260506204541 | 20 | 205 | 6.4 | 16.1 | 0.00 | 0.00 | 0.00 | 66 | 1016.8 |
| 20260506203042 | 20 | 270 | 6.4 | 17.7 | 0.00 | 0.00 | 0.00 | 66 | 1016.7 |
| 20260506201536 | 20 | 360 | 6.4 | 17.7 | 0.00 | 0.00 | 0.00 | 64 | 1016.9 |
| 20260506200036 | 20 | 213 | 4.8 | 19.3 | 0.00 | 0.00 | 0.00 | 66 | 1016.9 |
| 20260506194548 | 20 | 220 | 3.2 | 17.7 | 0.00 | 0.00 | 0.00 | 66 | 1017.2 |
| 20260506193038 | 19 | 275 | 3.2 | 17.7 | 0.00 | 0.00 | 0.00 | 67 | 1017.3 |
| 20260506191539 | 19 | 293 | 4.8 | 20.9 | 0.00 | 0.00 | 0.00 | 66 | 1017.5 |
| 20260506190042 | 20 | 252 | 3.2 | 14.5 | 0.00 | 0.00 | 0.00 | 66 | 1017.4 |
| 20260506184544 | 19 | 209 | 4.8 | 19.3 | 0.00 | 0.03 | 0.00 | 67 | 1017.4 |
| 20260506183039 | 19 | 241 | 3.2 | 17.7 | 0.00 | 0.03 | 0.00 | 68 | 1017.5 |
| 20260506181545 | 18 | 348 | 3.2 | 19.3 | 0.00 | 0.03 | 0.00 | 67 | 1017.7 |
| 20260506180050 | 19 | 269 | 4.8 | 17.7 | 0.00 | 0.03 | 0.00 | 64 | 1017.9 |
| 20260506174539 | 19 | 332 | 1.6 | 12.9 | 0.00 | 0.03 | 0.00 | 62 | 1017.9 |
| 20260506173045 | 18 | 327 | 3.2 | 17.7 | 0.00 | 0.03 | 0.00 | 63 | 1018.1 |
| 20260506171551 | 18 | 296 | 6.4 | 16.1 | 0.00 | 0.03 | 0.00 | 62 | 1018.1 |
| 20260506170040 | 18 | 326 | 4.8 | 14.5 | 0.00 | 0.03 | 0.00 | 64 | 1018.0 |
| 20260506164539 | 17 | 349 | 1.6 | 12.9 | 0.00 | 0.05 | 0.00 | 66 | 1018.0 |
| 20260506163042 | 17 | 306 | 4.8 | 12.9 | 0.00 | 0.05 | 0.00 | 67 | 1018.0 |
| 20260506161535 | 17 | 207 | 1.6 | 12.9 | 0.00 | 0.05 | 0.00 | 69 | 1017.9 |
| 20260506160043 | 17 | 360 | 3.2 | 12.9 | 0.00 | 0.05 | 0.00 | 70 | 1017.9 |
| 20260506154544 | 17 | 0 | 3.2 | 6.4 | 0.00 | 0.08 | 0.00 | 69 | 1018.0 |
| 20260506153038 | 16 | 67 | 3.2 | 8.0 | 0.00 | 0.08 | 0.00 | 70 | 1018.0 |
| 20260506151538 | 17 | 86 | 0.0 | 4.8 | 0.00 | 0.08 | 0.00 | 69 | 1018.0 |
| 20260506150036 | 16 | 0 | 1.6 | 6.4 | 0.00 | 0.08 | 0.00 | 71 | 1018.1 |
| 20260506144551 | 15 | 147 | 3.2 | 6.4 | 0.00 | 0.10 | 0.00 | 73 | 1017.9 |
| 20260506143039 | 15 | 98 | 1.6 | 6.4 | 0.00 | 0.10 | 0.00 | 77 | 1018.0 |